sensor_id;sensor_type;location;lat;lon;timestamp;pressure;altitude;pressure_sealevel;temperature;humidity
51928;BME280;37953;52.806;18.270;2023-03-16T00:00:47;100877.06;;;3.66;100.00
51928;BME280;37953;52.806;18.270;2023-03-16T00:03:21;100873.56;;;3.64;100.00
51928;BME280;37953;52.806;18.270;2023-03-16T00:05:47;100885.53;;;3.63;100.00
51928;BME280;37953;52.806;18.270;2023-03-16T00:08:13;100880.34;;;3.62;100.00
51928;BME280;37953;52.806;18.270;2023-03-16T00:10:39;100882.91;;;3.62;100.00
51928;BME280;37953;52.806;18.270;2023-03-16T00:13:17;100887.94;;;3.59;100.00
51928;BME280;37953;52.806;18.270;2023-03-16T00:15:50;100889.63;;;3.58;100.00
51928;BME280;37953;52.806;18.270;2023-03-16T00:18:16;100883.56;;;3.56;100.00
51928;BME280;37953;52.806;18.270;2023-03-16T00:20:42;100891.28;;;3.56;100.00
51928;BME280;37953;52.806;18.270;2023-03-16T00:23:14;100883.44;;;3.53;100.00
51928;BME280;37953;52.806;18.270;2023-03-16T00:25:40;100885.06;;;3.51;100.00
51928;BME280;37953;52.806;18.270;2023-03-16T00:28:07;100888.53;;;3.52;100.00
51928;BME280;37953;52.806;18.270;2023-03-16T00:30:32;100888.47;;;3.50;100.00
51928;BME280;37953;52.806;18.270;2023-03-16T00:32:58;100890.16;;;3.50;100.00
51928;BME280;37953;52.806;18.270;2023-03-16T00:35:24;100887.53;;;3.48;100.00
51928;BME280;37953;52.806;18.270;2023-03-16T00:37:50;100893.47;;;3.47;100.00
51928;BME280;37953;52.806;18.270;2023-03-16T00:40:15;100894.25;;;3.44;100.00
51928;BME280;37953;52.806;18.270;2023-03-16T00:42:42;100887.28;;;3.42;100.00
51928;BME280;37953;52.806;18.270;2023-03-16T00:45:10;100892.38;;;3.40;100.00
51928;BME280;37953;52.806;18.270;2023-03-16T00:47:36;100888.00;;;3.38;100.00
51928;BME280;37953;52.806;18.270;2023-03-16T00:50:02;100889.63;;;3.36;100.00
51928;BME280;37953;52.806;18.270;2023-03-16T00:52:28;100896.41;;;3.34;100.00
51928;BME280;37953;52.806;18.270;2023-03-16T00:54:54;100898.09;;;3.33;100.00
51928;BME280;37953;52.806;18.270;2023-03-16T00:57:21;100893.72;;;3.31;100.00
51928;BME280;37953;52.806;18.270;2023-03-16T00:59:47;100899.66;;;3.30;100.00
51928;BME280;37953;52.806;18.270;2023-03-16T01:02:14;100896.16;;;3.28;100.00
51928;BME280;37953;52.806;18.270;2023-03-16T01:04:47;100896.13;;;3.26;100.00
51928;BME280;37953;52.806;18.270;2023-03-16T01:07:13;100899.47;;;3.25;100.00
51928;BME280;37953;52.806;18.270;2023-03-16T01:09:40;100898.63;;;3.24;100.00
51928;BME280;37953;52.806;18.270;2023-03-16T01:12:08;100897.75;;;3.24;100.00
51928;BME280;37953;52.806;18.270;2023-03-16T01:14:34;100904.53;;;3.23;100.00
51928;BME280;37953;52.806;18.270;2023-03-16T01:17:04;100905.38;;;3.22;100.00
51928;BME280;37953;52.806;18.270;2023-03-16T01:19:35;100901.97;;;3.23;100.00
51928;BME280;37953;52.806;18.270;2023-03-16T01:22:01;100905.31;;;3.21;100.00
51928;BME280;37953;52.806;18.270;2023-03-16T01:24:28;100901.75;;;3.17;100.00
51928;BME280;37953;52.806;18.270;2023-03-16T01:26:54;100902.56;;;3.16;100.00
51928;BME280;37953;52.806;18.270;2023-03-16T01:29:20;100908.50;;;3.15;100.00
51928;BME280;37953;52.806;18.270;2023-03-16T01:31:46;100908.50;;;3.15;100.00
51928;BME280;37953;52.806;18.270;2023-03-16T01:34:14;100905.91;;;3.14;100.00
51928;BME280;37953;52.806;18.270;2023-03-16T01:36:43;100912.69;;;3.13;100.00
51928;BME280;37953;52.806;18.270;2023-03-16T01:39:10;100916.09;;;3.12;100.00
51928;BME280;37953;52.806;18.270;2023-03-16T01:41:36;100915.22;;;3.12;100.00
51928;BME280;37953;52.806;18.270;2023-03-16T01:44:02;100918.59;;;3.11;100.00
51928;BME280;37953;52.806;18.270;2023-03-16T01:46:30;100919.41;;;3.10;100.00
51928;BME280;37953;52.806;18.270;2023-03-16T01:51:36;100909.94;;;3.09;100.00
51928;BME280;37953;52.806;18.270;2023-03-16T01:54:12;100914.16;;;3.06;100.00
51928;BME280;37953;52.806;18.270;2023-03-16T01:57:22;100921.84;;;3.06;100.00
51928;BME280;37953;52.806;18.270;2023-03-16T01:59:35;100921.81;;;3.05;100.00
51928;BME280;37953;52.806;18.270;2023-03-16T02:02:02;100919.16;;;3.03;100.00
51928;BME280;37953;52.806;18.270;2023-03-16T02:05:11;100924.31;;;3.03;100.00
51928;BME280;37953;52.806;18.270;2023-03-16T02:07:18;100930.19;;;3.01;100.00
51928;BME280;37953;52.806;18.270;2023-03-16T02:09:45;100928.44;;;3.00;100.00
51928;BME280;37953;52.806;18.270;2023-03-16T02:12:13;100921.56;;;2.99;100.00
51928;BME280;37953;52.806;18.270;2023-03-16T02:14:46;100930.06;;;2.98;100.00
51928;BME280;37953;52.806;18.270;2023-03-16T02:17:13;100930.88;;;2.97;100.00
51928;BME280;37953;52.806;18.270;2023-03-16T02:22:23;100942.78;;;2.95;100.00
51928;BME280;37953;52.806;18.270;2023-03-16T02:24:52;100935.88;;;2.94;100.00
51928;BME280;37953;52.806;18.270;2023-03-16T02:27:24;100944.41;;;2.93;100.00
51928;BME280;37953;52.806;18.270;2023-03-16T02:30:07;100946.97;;;2.93;100.00
51928;BME280;37953;52.806;18.270;2023-03-16T02:32:36;100947.75;;;2.92;100.00
51928;BME280;37953;52.806;18.270;2023-03-16T02:35:08;100953.72;;;2.91;100.00
51928;BME280;37953;52.806;18.270;2023-03-16T02:37:40;100953.66;;;2.89;100.00
51928;BME280;37953;52.806;18.270;2023-03-16T02:42:46;100958.72;;;2.88;100.00
51928;BME280;37953;52.806;18.270;2023-03-16T02:45:12;100953.53;;;2.86;100.00
51928;BME280;37953;52.806;18.270;2023-03-16T02:47:44;100956.03;;;2.84;100.00
51928;BME280;37953;52.806;18.270;2023-03-16T02:50:12;100955.16;;;2.84;100.00
51928;BME280;37953;52.806;18.270;2023-03-16T02:52:38;100955.16;;;2.84;100.00
51928;BME280;37953;52.806;18.270;2023-03-16T02:55:04;100954.22;;;2.82;100.00
51928;BME280;37953;52.806;18.270;2023-03-16T02:57:31;100949.88;;;2.81;100.00
51928;BME280;37953;52.806;18.270;2023-03-16T02:59:56;100952.38;;;2.79;100.00
51928;BME280;37953;52.806;18.270;2023-03-16T03:02:22;100954.03;;;2.77;100.00
51928;BME280;37953;52.806;18.270;2023-03-16T03:04:48;100953.13;;;2.77;100.00
51928;BME280;37953;52.806;18.270;2023-03-16T03:07:14;100958.25;;;2.77;100.00
51928;BME280;37953;52.806;18.270;2023-03-16T03:09:40;100958.22;;;2.75;100.00
51928;BME280;37953;52.806;18.270;2023-03-16T03:12:09;100959.03;;;2.74;100.00
51928;BME280;37953;52.806;18.270;2023-03-16T03:14:35;100955.50;;;2.72;100.00
51928;BME280;37953;52.806;18.270;2023-03-16T03:17:06;100953.78;;;2.71;100.00
51928;BME280;37953;52.806;18.270;2023-03-16T03:19:33;100960.56;;;2.71;100.00
51928;BME280;37953;52.806;18.270;2023-03-16T03:21:59;100963.09;;;2.69;100.00
51928;BME280;37953;52.806;18.270;2023-03-16T03:24:30;100959.63;;;2.69;100.00
51928;BME280;37953;52.806;18.270;2023-03-16T03:26:57;100963.88;;;2.68;100.00
51928;BME280;37953;52.806;18.270;2023-03-16T03:29:30;100969.00;;;2.68;100.00
51928;BME280;37953;52.806;18.270;2023-03-16T03:32:03;100965.59;;;2.68;100.00
51928;BME280;37953;52.806;18.270;2023-03-16T03:34:29;100968.06;;;2.66;100.00
51928;BME280;37953;52.806;18.270;2023-03-16T03:36:55;100962.88;;;2.64;100.00
51928;BME280;37953;52.806;18.270;2023-03-16T03:39:20;100964.56;;;2.64;100.00
51928;BME280;37953;52.806;18.270;2023-03-16T03:41:46;100966.19;;;2.62;100.00
51928;BME280;37953;52.806;18.270;2023-03-16T03:44:12;100964.44;;;2.61;100.00
51928;BME280;37953;52.806;18.270;2023-03-16T03:46:38;100971.28;;;2.60;100.00
51928;BME280;37953;52.806;18.270;2023-03-16T03:49:03;100967.81;;;2.60;100.00
51928;BME280;37953;52.806;18.270;2023-03-16T03:51:30;100965.19;;;2.58;100.00
51928;BME280;37953;52.806;18.270;2023-03-16T03:53:59;100971.13;;;2.57;100.00
51928;BME280;37953;52.806;18.270;2023-03-16T03:56:25;100967.69;;;2.57;100.00
51928;BME280;37953;52.806;18.270;2023-03-16T03:58:50;100974.44;;;2.55;100.00
51928;BME280;37953;52.806;18.270;2023-03-16T04:01:16;100977.00;;;2.55;100.00
51928;BME280;37953;52.806;18.270;2023-03-16T04:03:42;100968.44;;;2.54;100.00
51928;BME280;37953;52.806;18.270;2023-03-16T04:06:08;100971.00;;;2.54;100.00
51928;BME280;37953;52.806;18.270;2023-03-16T04:08:34;100972.66;;;2.54;100.00
51928;BME280;37953;52.806;18.270;2023-03-16T04:11:00;100976.94;;;2.53;100.00
51928;BME280;37953;52.806;18.270;2023-03-16T04:13:26;100972.66;;;2.54;100.00
51928;BME280;37953;52.806;18.270;2023-03-16T04:15:58;100973.56;;;2.54;100.00
51928;BME280;37953;52.806;18.270;2023-03-16T04:18:27;100975.31;;;2.55;100.00
51928;BME280;37953;52.806;18.270;2023-03-16T04:20:53;100976.13;;;2.54;100.00
51928;BME280;37953;52.806;18.270;2023-03-16T04:23:19;100973.56;;;2.54;100.00
51928;BME280;37953;52.806;18.270;2023-03-16T04:25:45;100966.66;;;2.53;100.00
51928;BME280;37953;52.806;18.270;2023-03-16T04:28:11;100970.09;;;2.54;100.00
51928;BME280;37953;52.806;18.270;2023-03-16T04:30:37;100969.31;;;2.55;100.00
51928;BME280;37953;52.806;18.270;2023-03-16T04:33:02;100976.13;;;2.54;100.00
51928;BME280;37953;52.806;18.270;2023-03-16T04:35:29;100976.19;;;2.56;100.00
51928;BME280;37953;52.806;18.270;2023-03-16T04:37:54;100977.88;;;2.55;100.00
51928;BME280;37953;52.806;18.270;2023-03-16T04:40:20;100984.78;;;2.56;100.00
51928;BME280;37953;52.806;18.270;2023-03-16T04:42:46;100989.00;;;2.56;100.00
51928;BME280;37953;52.806;18.270;2023-03-16T04:45:12;100994.97;;;2.55;100.00
51928;BME280;37953;52.806;18.270;2023-03-16T04:47:38;100990.63;;;2.54;100.00
51928;BME280;37953;52.806;18.270;2023-03-16T04:50:05;100989.69;;;2.52;100.00
51928;BME280;37953;52.806;18.270;2023-03-16T04:52:31;100988.72;;;2.50;100.00
51928;BME280;37953;52.806;18.270;2023-03-16T04:54:57;100990.34;;;2.48;100.00
51928;BME280;37953;52.806;18.270;2023-03-16T04:57:23;100995.47;;;2.48;100.00
51928;BME280;37953;52.806;18.270;2023-03-16T04:59:49;100995.47;;;2.48;100.00
51928;BME280;37953;52.806;18.270;2023-03-16T05:02:15;101004.06;;;2.48;100.00
51928;BME280;37953;52.806;18.270;2023-03-16T05:04:42;101006.56;;;2.47;100.00
51928;BME280;37953;52.806;18.270;2023-03-16T05:07:08;101005.69;;;2.46;100.00
51928;BME280;37953;52.806;18.270;2023-03-16T05:09:33;101001.44;;;2.47;100.00
51928;BME280;37953;52.806;18.270;2023-03-16T05:11:59;101001.44;;;2.47;100.00
51928;BME280;37953;52.806;18.270;2023-03-16T05:14:25;101005.63;;;2.44;100.00
51928;BME280;37953;52.806;18.270;2023-03-16T05:16:51;101008.19;;;2.44;100.00
51928;BME280;37953;52.806;18.270;2023-03-16T05:19:17;101006.44;;;2.43;100.00
51928;BME280;37953;52.806;18.270;2023-03-16T05:21:43;101002.97;;;2.43;100.00
51928;BME280;37953;52.806;18.270;2023-03-16T05:24:10;101004.66;;;2.42;100.00
51928;BME280;37953;52.806;18.270;2023-03-16T05:26:36;100995.25;;;2.41;100.00
51928;BME280;37953;52.806;18.270;2023-03-16T05:29:02;100997.81;;;2.41;100.00
51928;BME280;37953;52.806;18.270;2023-03-16T05:31:28;101007.22;;;2.42;100.00
51928;BME280;37953;52.806;18.270;2023-03-16T05:33:57;101010.66;;;2.43;100.00
51928;BME280;37953;52.806;18.270;2023-03-16T05:36:23;101013.38;;;2.46;100.00
51928;BME280;37953;52.806;18.270;2023-03-16T05:38:54;101017.69;;;2.47;100.00
51928;BME280;37953;52.806;18.270;2023-03-16T05:41:20;101008.38;;;2.49;100.00
51928;BME280;37953;52.806;18.270;2023-03-16T05:43:47;101016.16;;;2.51;100.00
51928;BME280;37953;52.806;18.270;2023-03-16T05:46:13;101021.34;;;2.52;100.00
51928;BME280;37953;52.806;18.270;2023-03-16T05:48:39;101016.22;;;2.52;100.00
51928;BME280;37953;52.806;18.270;2023-03-16T05:51:04;101015.41;;;2.53;100.00
51928;BME280;37953;52.806;18.270;2023-03-16T05:53:31;101021.41;;;2.54;100.00
51928;BME280;37953;52.806;18.270;2023-03-16T05:55:57;101020.59;;;2.55;100.00
51928;BME280;37953;52.806;18.270;2023-03-16T05:58:23;101033.50;;;2.56;100.00
51928;BME280;37953;52.806;18.270;2023-03-16T06:00:49;101030.13;;;2.57;100.00
51928;BME280;37953;52.806;18.270;2023-03-16T06:03:15;101032.75;;;2.59;100.00
51928;BME280;37953;52.806;18.270;2023-03-16T06:05:41;101037.06;;;2.60;100.00
51928;BME280;37953;52.806;18.270;2023-03-16T06:08:07;101037.13;;;2.61;100.00
51928;BME280;37953;52.806;18.270;2023-03-16T06:10:34;101042.28;;;2.61;100.00
51928;BME280;37953;52.806;18.270;2023-03-16T06:13:00;101038.00;;;2.62;100.00
51928;BME280;37953;52.806;18.270;2023-03-16T06:15:26;101031.22;;;2.62;100.00
51928;BME280;37953;52.806;18.270;2023-03-16T06:17:55;101044.09;;;2.64;100.00
51928;BME280;37953;52.806;18.270;2023-03-16T06:20:27;101034.69;;;2.64;100.00
51928;BME280;37953;52.806;18.270;2023-03-16T06:22:53;101038.16;;;2.65;100.00
51928;BME280;37953;52.806;18.270;2023-03-16T06:25:18;101045.09;;;2.68;100.00
51928;BME280;37953;52.806;18.270;2023-03-16T06:27:47;101050.22;;;2.68;100.00
51928;BME280;37953;52.806;18.270;2023-03-16T06:30:14;101046.84;;;2.69;100.00
51928;BME280;37953;52.806;18.270;2023-03-16T06:32:40;101045.22;;;2.71;100.00
51928;BME280;37953;52.806;18.270;2023-03-16T06:35:10;101047.06;;;2.73;100.00
51928;BME280;37953;52.806;18.270;2023-03-16T06:37:37;101049.63;;;2.73;100.00
51928;BME280;37953;52.806;18.270;2023-03-16T06:40:03;101056.50;;;2.74;100.00
51928;BME280;37953;52.806;18.270;2023-03-16T06:42:29;101058.28;;;2.75;100.00
51928;BME280;37953;52.806;18.270;2023-03-16T06:44:54;101059.22;;;2.77;100.00
51928;BME280;37953;52.806;18.270;2023-03-16T06:47:21;101063.53;;;2.78;100.00
51928;BME280;37953;52.806;18.270;2023-03-16T06:49:47;101067.91;;;2.81;100.00
51928;BME280;37953;52.806;18.270;2023-03-16T06:52:13;101072.28;;;2.83;100.00
51928;BME280;37953;52.806;18.270;2023-03-16T06:54:39;101073.25;;;2.85;100.00
51928;BME280;37953;52.806;18.270;2023-03-16T06:57:07;101068.19;;;2.87;100.00
51928;BME280;37953;52.806;18.270;2023-03-16T06:59:33;101069.13;;;2.89;100.00
51928;BME280;37953;52.806;18.270;2023-03-16T07:01:59;101060.69;;;2.92;100.00
51928;BME280;37953;52.806;18.270;2023-03-16T07:04:26;101060.81;;;2.95;100.00
51928;BME280;37953;52.806;18.270;2023-03-16T07:06:52;101064.34;;;2.97;100.00
51928;BME280;37953;52.806;18.270;2023-03-16T07:09:19;101060.19;;;3.00;100.00
51928;BME280;37953;52.806;18.270;2023-03-16T07:11:46;101074.88;;;3.03;100.00
51928;BME280;37953;52.806;18.270;2023-03-16T07:14:12;101074.13;;;3.05;100.00
51928;BME280;37953;52.806;18.270;2023-03-16T07:16:38;101073.28;;;3.06;100.00
51928;BME280;37953;52.806;18.270;2023-03-16T07:19:04;101076.00;;;3.10;100.00
51928;BME280;37953;52.806;18.270;2023-03-16T07:21:29;101076.09;;;3.11;100.00
51928;BME280;37953;52.806;18.270;2023-03-16T07:24:15;101072.81;;;3.15;100.00
51928;BME280;37953;52.806;18.270;2023-03-16T07:26:41;101072.94;;;3.18;100.00
51928;BME280;37953;52.806;18.270;2023-03-16T07:29:07;101073.03;;;3.20;100.00
51928;BME280;37953;52.806;18.270;2023-03-16T07:31:34;101073.13;;;3.23;100.00
51928;BME280;37953;52.806;18.270;2023-03-16T07:34:00;101074.06;;;3.25;100.00
51928;BME280;37953;52.806;18.270;2023-03-16T07:36:27;101083.59;;;3.28;100.00
51928;BME280;37953;52.806;18.270;2023-03-16T07:38:52;101079.41;;;3.30;100.00
51928;BME280;37953;52.806;18.270;2023-03-16T07:41:18;101078.66;;;3.32;100.00
51928;BME280;37953;52.806;18.270;2023-03-16T07:43:44;101088.19;;;3.35;100.00
51928;BME280;37953;52.806;18.270;2023-03-16T07:46:10;101095.94;;;3.36;100.00
51928;BME280;37953;52.806;18.270;2023-03-16T07:48:41;101097.81;;;3.40;100.00
51928;BME280;37953;52.806;18.270;2023-03-16T07:51:08;101096.16;;;3.41;100.00
51928;BME280;37953;52.806;18.270;2023-03-16T07:53:34;101095.41;;;3.43;100.00
51928;BME280;37953;52.806;18.270;2023-03-16T07:56:00;101096.34;;;3.45;100.00
51928;BME280;37953;52.806;18.270;2023-03-16T07:58:26;101099.16;;;3.52;100.00
51928;BME280;37953;52.806;18.270;2023-03-16T08:00:55;101094.22;;;3.56;100.00
51928;BME280;37953;52.806;18.270;2023-03-16T08:03:20;101103.84;;;3.62;100.00
51928;BME280;37953;52.806;18.270;2023-03-16T08:05:47;101105.69;;;3.64;100.00
51928;BME280;37953;52.806;18.270;2023-03-16T08:08:13;101115.22;;;3.67;100.00
51928;BME280;37953;52.806;18.270;2023-03-16T08:10:40;101108.50;;;3.71;100.00
51928;BME280;37953;52.806;18.270;2023-03-16T08:13:06;101116.25;;;3.72;100.00
51928;BME280;37953;52.806;18.270;2023-03-16T08:15:32;101119.72;;;3.73;100.00
51928;BME280;37953;52.806;18.270;2023-03-16T08:17:59;101113.69;;;3.72;100.00
51928;BME280;37953;52.806;18.270;2023-03-16T08:20:32;101110.31;;;3.73;100.00
51928;BME280;37953;52.806;18.270;2023-03-16T08:22:58;101120.66;;;3.75;100.00
51928;BME280;37953;52.806;18.270;2023-03-16T08:25:24;101125.06;;;3.77;100.00
51928;BME280;37953;52.806;18.270;2023-03-16T08:27:51;101128.56;;;3.79;100.00
51928;BME280;37953;52.806;18.270;2023-03-16T08:30:17;101131.13;;;3.79;100.00
51928;BME280;37953;52.806;18.270;2023-03-16T08:32:43;101128.59;;;3.81;100.00
51928;BME280;37953;52.806;18.270;2023-03-16T08:35:10;101126.94;;;3.81;100.00
51928;BME280;37953;52.806;18.270;2023-03-16T08:37:41;101134.69;;;3.83;100.00
51928;BME280;37953;52.806;18.270;2023-03-16T08:40:07;101125.34;;;3.85;100.00
51928;BME280;37953;52.806;18.270;2023-03-16T08:42:41;101134.00;;;3.87;100.00
51928;BME280;37953;52.806;18.270;2023-03-16T08:45:08;101133.28;;;3.90;100.00
51928;BME280;37953;52.806;18.270;2023-03-16T08:47:37;101129.09;;;3.93;100.00
51928;BME280;37953;52.806;18.270;2023-03-16T08:50:05;101131.75;;;3.95;100.00
51928;BME280;37953;52.806;18.270;2023-03-16T08:52:32;101145.63;;;3.98;100.00
51928;BME280;37953;52.806;18.270;2023-03-16T08:54:58;101149.13;;;4.00;100.00
51928;BME280;37953;52.806;18.270;2023-03-16T08:57:24;101132.00;;;4.01;100.00
51928;BME280;37953;52.806;18.270;2023-03-16T08:59:50;101132.06;;;4.02;100.00
51928;BME280;37953;52.806;18.270;2023-03-16T09:02:16;101141.59;;;4.05;100.00
51928;BME280;37953;52.806;18.270;2023-03-16T09:04:42;101143.41;;;4.07;100.00
51928;BME280;37953;52.806;18.270;2023-03-16T09:07:08;101141.75;;;4.10;100.00
51928;BME280;37953;52.806;18.270;2023-03-16T09:09:34;101143.56;;;4.12;100.00
51928;BME280;37953;52.806;18.270;2023-03-16T09:12:00;101141.94;;;4.14;100.00
51928;BME280;37953;52.806;18.270;2023-03-16T09:14:26;101142.88;;;4.16;100.00
51928;BME280;37953;52.806;18.270;2023-03-16T09:16:52;101145.53;;;4.18;100.00
51928;BME280;37953;52.806;18.270;2023-03-16T09:19:18;101148.97;;;4.18;100.00
51928;BME280;37953;52.806;18.270;2023-03-16T09:21:45;101149.03;;;4.20;100.00
51928;BME280;37953;52.806;18.270;2023-03-16T09:24:11;101143.06;;;4.21;100.00
51928;BME280;37953;52.806;18.270;2023-03-16T09:26:43;101153.47;;;4.24;100.00
51928;BME280;37953;52.806;18.270;2023-03-16T09:29:10;101143.38;;;4.28;100.00
51928;BME280;37953;52.806;18.270;2023-03-16T09:31:36;101150.47;;;4.34;100.00
51928;BME280;37953;52.806;18.270;2023-03-16T09:34:03;101145.56;;;4.40;100.00
51928;BME280;37953;52.806;18.270;2023-03-16T09:36:29;101151.75;;;4.45;100.00
51928;BME280;37953;52.806;18.270;2023-03-16T09:38:55;101152.78;;;4.51;100.00
51928;BME280;37953;52.806;18.270;2023-03-16T09:46:25;101160.72;;;4.57;100.00
51928;BME280;37953;52.806;18.270;2023-03-16T09:48:53;101157.34;;;4.58;100.00
51928;BME280;37953;52.806;18.270;2023-03-16T09:51:36;101158.22;;;4.58;100.00
51928;BME280;37953;52.806;18.270;2023-03-16T09:54:04;101159.06;;;4.57;100.00
51928;BME280;37953;52.806;18.270;2023-03-16T09:56:34;101165.09;;;4.58;100.00
51928;BME280;37953;52.806;18.270;2023-03-16T09:59:08;101165.09;;;4.58;100.00
51928;BME280;37953;52.806;18.270;2023-03-16T10:01:45;101171.97;;;4.59;100.00
51928;BME280;37953;52.806;18.270;2023-03-16T10:06:51;101171.97;;;4.59;100.00
51928;BME280;37953;52.806;18.270;2023-03-16T10:09:23;101173.66;;;4.58;100.00
51928;BME280;37953;52.806;18.270;2023-03-16T10:11:53;101178.88;;;4.60;100.00
51928;BME280;37953;52.806;18.270;2023-03-16T10:14:22;101174.50;;;4.57;100.00
51928;BME280;37953;52.806;18.270;2023-03-16T10:16:57;101177.88;;;4.56;100.00
51928;BME280;37953;52.806;18.270;2023-03-16T10:21:55;101182.25;;;4.59;100.00
51928;BME280;37953;52.806;18.270;2023-03-16T10:26:55;101183.25;;;4.62;100.00
51928;BME280;37953;52.806;18.270;2023-03-16T10:29:26;101185.06;;;4.65;100.00
51928;BME280;37953;52.806;18.270;2023-03-16T10:31:58;101184.28;;;4.66;100.00
51928;BME280;37953;52.806;18.270;2023-03-16T10:34:26;101185.22;;;4.68;100.00
51928;BME280;37953;52.806;18.270;2023-03-16T10:36:59;101184.44;;;4.71;100.00
51928;BME280;37953;52.806;18.270;2023-03-16T10:39:34;101183.59;;;4.72;100.00
51928;BME280;37953;52.806;18.270;2023-03-16T10:41:54;101181.09;;;4.73;100.00
51928;BME280;37953;52.806;18.270;2023-03-16T10:44:22;101183.78;;;4.76;100.00
51928;BME280;37953;52.806;18.270;2023-03-16T10:46:49;101183.06;;;4.80;100.00
51928;BME280;37953;52.806;18.270;2023-03-16T10:49:23;101186.56;;;4.82;100.00
51928;BME280;37953;52.806;18.270;2023-03-16T10:51:58;101182.38;;;4.84;100.00
51928;BME280;37953;52.806;18.270;2023-03-16T10:56:50;101186.78;;;4.87;100.00
51928;BME280;37953;52.806;18.270;2023-03-16T10:59:27;101185.94;;;4.88;100.00
51928;BME280;37953;52.806;18.270;2023-03-16T11:01:53;101182.56;;;4.89;100.00
51928;BME280;37953;52.806;18.270;2023-03-16T11:04:20;101189.44;;;4.90;100.00
51928;BME280;37953;52.806;18.270;2023-03-16T11:06:55;101191.25;;;4.93;100.00
51928;BME280;37953;52.806;18.270;2023-03-16T11:09:23;101190.56;;;4.97;100.00
51928;BME280;37953;52.806;18.270;2023-03-16T11:11:49;101196.78;;;5.02;100.00
51928;BME280;37953;52.806;18.270;2023-03-16T11:14:18;101200.38;;;5.07;100.00
51928;BME280;37953;52.806;18.270;2023-03-16T11:19:17;101196.25;;;5.12;100.00
51928;BME280;37953;52.806;18.270;2023-03-16T11:21:46;101198.97;;;5.15;100.00
51928;BME280;37953;52.806;18.270;2023-03-16T11:26:59;101195.84;;;5.24;100.00
51928;BME280;37953;52.806;18.270;2023-03-16T11:31:53;101193.56;;;5.32;100.00
51928;BME280;37953;52.806;18.270;2023-03-16T11:34:26;101195.34;;;5.34;100.00
51928;BME280;37953;52.806;18.270;2023-03-16T11:36:53;101196.22;;;5.35;100.00
51928;BME280;37953;52.806;18.270;2023-03-16T11:39:35;101202.31;;;5.37;100.00
51928;BME280;37953;52.806;18.270;2023-03-16T11:52:36;101200.31;;;5.54;100.00
51928;BME280;37953;52.806;18.270;2023-03-16T11:55:17;101195.22;;;5.55;100.00
51928;BME280;37953;52.806;18.270;2023-03-16T12:05:44;101200.81;;;5.67;100.00
51928;BME280;37953;52.806;18.270;2023-03-16T12:10:58;101199.91;;;5.67;100.00
51928;BME280;37953;52.806;18.270;2023-03-16T12:13:44;101205.03;;;5.65;100.00
51928;BME280;37953;52.806;18.270;2023-03-16T12:18:44;101201.47;;;5.62;100.00
51928;BME280;37953;52.806;18.270;2023-03-16T12:21:14;101198.91;;;5.62;100.00
51928;BME280;37953;52.806;18.270;2023-03-16T12:23:48;101206.63;;;5.62;100.00
51928;BME280;37953;52.806;18.270;2023-03-16T12:26:15;101200.59;;;5.61;100.00
51928;BME280;37953;52.806;18.270;2023-03-16T12:28:42;101194.63;;;5.62;100.00
51928;BME280;37953;52.806;18.270;2023-03-16T12:41:22;101208.50;;;5.66;100.00
51928;BME280;37953;52.806;18.270;2023-03-16T12:43:59;101215.34;;;5.65;100.00
51928;BME280;37953;52.806;18.270;2023-03-16T12:49:06;101208.50;;;5.66;100.00
51928;BME280;37953;52.806;18.270;2023-03-16T12:51:40;101208.56;;;5.67;100.00
51928;BME280;37953;52.806;18.270;2023-03-16T12:54:24;101207.78;;;5.70;100.00
51928;BME280;37953;52.806;18.270;2023-03-16T12:56:52;101216.44;;;5.72;100.00
51928;BME280;37953;52.806;18.270;2023-03-16T12:59:20;101225.09;;;5.74;100.00
51928;BME280;37953;52.806;18.270;2023-03-16T13:01:50;101225.97;;;5.75;100.00
51928;BME280;37953;52.806;18.270;2023-03-16T13:04:17;101236.22;;;5.73;100.00
51928;BME280;37953;52.806;18.270;2023-03-16T13:06:45;101237.06;;;5.72;100.00
51928;BME280;37953;52.806;18.270;2023-03-16T13:09:17;101247.31;;;5.70;100.00
51928;BME280;37953;52.806;18.270;2023-03-16T13:11:45;101241.13;;;5.65;100.00
51928;BME280;37953;52.806;18.270;2023-03-16T13:17:03;101238.28;;;5.58;100.00
51928;BME280;37953;52.806;18.270;2023-03-16T13:19:35;101237.41;;;5.57;100.00
51928;BME280;37953;52.806;18.270;2023-03-16T13:25:10;101229.19;;;5.67;100.00
51928;BME280;37953;52.806;18.270;2023-03-16T13:27:57;101234.69;;;5.78;100.00
51928;BME280;37953;52.806;18.270;2023-03-16T13:30:30;101237.59;;;5.87;100.00
51928;BME280;37953;52.806;18.270;2023-03-16T13:33:00;101231.94;;;5.98;100.00
51928;BME280;37953;52.806;18.270;2023-03-16T13:35:29;101233.97;;;6.06;100.00
51928;BME280;37953;52.806;18.270;2023-03-16T13:38:03;101240.25;;;6.15;100.00
51928;BME280;37953;52.806;18.270;2023-03-16T13:40:32;101241.38;;;6.23;100.00
51928;BME280;37953;52.806;18.270;2023-03-16T13:43:02;101245.09;;;6.31;100.00
51928;BME280;37953;52.806;18.270;2023-03-16T13:45:31;101239.16;;;6.34;100.00
51928;BME280;37953;52.806;18.270;2023-03-16T13:47:59;101244.38;;;6.35;100.00
51928;BME280;37953;52.806;18.270;2023-03-16T13:50:25;101251.19;;;6.33;100.00
51928;BME280;37953;52.806;18.270;2023-03-16T13:52:58;101250.25;;;6.31;100.00
51928;BME280;37953;52.806;18.270;2023-03-16T13:55:32;101251.91;;;6.29;100.00
51928;BME280;37953;52.806;18.270;2023-03-16T13:57:59;101260.53;;;6.29;100.00